createdAt,value
2019-01-28T00:00:40.944Z,178.70
2019-01-28T00:03:10.322Z,178.47
2019-01-28T00:05:39.467Z,166.53
2019-01-28T00:08:08.633Z,176.13
2019-01-28T00:10:37.263Z,174.03
2019-01-28T00:13:06.525Z,184.20
2019-01-28T00:15:36.489Z,173.77
2019-01-28T00:18:07.013Z,175.37
2019-01-28T00:25:46.792Z,170.73
2019-01-28T00:32:56.415Z,171.40
2019-01-28T00:38:41.462Z,161.47
2019-01-28T01:22:30.908Z,199.07
2019-01-28T01:24:59.202Z,203.67
2019-01-28T01:27:26.742Z,211.97
2019-01-28T01:29:54.239Z,195.70
2019-01-28T01:32:21.977Z,206.37
2019-01-28T01:34:49.655Z,202.53
2019-01-28T01:37:19.443Z,223.03
2019-01-28T01:39:47.069Z,200.73
2019-01-28T01:42:15.825Z,209.07
2019-01-28T01:44:43.166Z,204.23
2019-01-28T01:47:10.688Z,224.53
2019-01-28T01:49:38.479Z,203.50
2019-01-28T01:52:06.145Z,198.93
2019-01-28T01:54:33.795Z,205.33
2019-01-28T01:57:01.586Z,226.03
2019-01-28T01:59:29.406Z,206.40
2019-01-28T02:01:56.783Z,205.70
2019-01-28T02:04:24.512Z,224.63
2019-01-28T02:06:53.368Z,209.97
2019-01-28T02:09:21.213Z,224.07
2019-01-28T02:11:48.693Z,224.97
2019-01-28T02:14:16.086Z,222.07
2019-01-28T02:16:43.588Z,220.83
2019-01-28T02:19:11.102Z,214.47
2019-01-28T02:21:38.887Z,211.97
2019-01-28T02:24:06.609Z,209.70
2019-01-28T02:26:34.127Z,233.80
2019-01-28T02:29:01.617Z,226.87
2019-01-28T02:31:29.207Z,224.93
2019-01-28T02:33:57.234Z,217.30
2019-01-28T02:36:24.934Z,217.87
2019-01-28T02:38:52.321Z,197.37
2019-01-28T02:41:19.889Z,199.83
2019-01-28T02:43:47.228Z,184.63
2019-01-28T02:46:14.903Z,195.20
2019-01-28T02:48:42.386Z,193.07
2019-01-28T02:51:10.009Z,189.73
2019-01-28T02:53:37.680Z,191.93
2019-01-28T02:56:05.251Z,185.10
2019-01-28T02:58:32.761Z,165.67
2019-01-28T03:01:00.253Z,170.03
2019-01-28T03:03:28.863Z,165.47
2019-01-28T03:05:56.494Z,173.53
2019-01-28T03:08:24.217Z,174.83
2019-01-28T03:10:51.720Z,178.43
2019-01-28T03:13:19.207Z,167.27
2019-01-28T03:15:46.804Z,174.30
2019-01-28T03:18:14.386Z,173.47
2019-01-28T03:20:42.478Z,163.83
2019-01-28T03:23:11.027Z,166.97
2019-01-28T03:25:38.532Z,156.17
2019-01-28T03:28:06.193Z,165.80
2019-01-28T03:30:33.950Z,164.60
2019-01-28T03:33:01.458Z,170.13
2019-01-28T03:35:29.064Z,165.73
2019-01-28T03:37:57.968Z,174.83
2019-01-28T03:40:25.601Z,167.50
2019-01-28T03:42:53.263Z,172.57
2019-01-28T03:45:21.164Z,172.00
2019-01-28T03:47:49.852Z,184.37
2019-01-28T03:50:19.000Z,178.33
2019-01-28T03:52:46.781Z,186.13
2019-01-28T03:55:14.359Z,180.47
2019-01-28T03:57:42.102Z,187.13
2019-01-28T04:00:16.639Z,174.17
2019-01-28T04:02:44.388Z,188.57
2019-01-28T04:05:12.166Z,176.57
2019-01-28T04:07:39.745Z,194.33
2019-01-28T04:10:11.262Z,176.17
2019-01-28T04:12:40.544Z,198.17
2019-01-28T04:15:11.363Z,179.87
2019-01-28T04:17:39.148Z,203.63
2019-01-28T04:20:09.235Z,174.73
2019-01-28T04:22:38.418Z,211.20
2019-01-28T04:25:06.635Z,193.50
2019-01-28T04:27:34.916Z,202.57
2019-01-28T04:30:04.228Z,191.50
2019-01-28T04:32:32.059Z,204.63
2019-01-28T04:34:59.649Z,199.10
2019-01-28T04:37:27.649Z,217.97
2019-01-28T04:39:55.112Z,192.90
2019-01-28T04:42:23.595Z,209.80
2019-01-28T04:44:51.136Z,195.13
2019-01-28T04:47:18.787Z,202.13
2019-01-28T04:49:46.469Z,198.93
2019-01-28T04:52:14.193Z,205.30
2019-01-28T04:54:41.723Z,187.43
2019-01-28T04:57:09.351Z,209.97
2019-01-28T04:59:36.946Z,199.33
2019-01-28T05:02:04.677Z,202.40
2019-01-28T05:04:34.073Z,199.37
2019-01-28T05:07:01.694Z,209.63
2019-01-28T05:09:29.305Z,200.00
2019-01-28T05:11:56.760Z,202.83
2019-01-28T05:14:24.277Z,192.77
2019-01-28T05:16:51.842Z,201.53
2019-01-28T05:19:19.492Z,188.60
2019-01-28T05:21:46.994Z,192.97
2019-01-28T05:24:14.680Z,205.27
2019-01-28T05:26:42.183Z,200.47
2019-01-28T05:29:09.729Z,194.77
2019-01-28T05:31:37.334Z,206.20
2019-01-28T05:34:05.204Z,196.97
2019-01-28T05:36:32.795Z,197.90
2019-01-28T05:39:00.140Z,191.63
2019-01-28T05:41:29.511Z,185.83
2019-01-28T05:43:56.995Z,193.73
2019-01-28T05:46:25.345Z,186.50
2019-01-28T05:48:52.850Z,185.63
2019-01-28T05:51:20.637Z,196.13
2019-01-28T05:53:48.247Z,195.03
2019-01-28T05:56:15.740Z,190.47
2019-01-28T05:58:43.223Z,190.67
2019-01-28T06:01:10.726Z,191.83
2019-01-28T06:03:38.105Z,202.67
2019-01-28T06:06:05.459Z,187.13
2019-01-28T06:08:32.966Z,190.37
2019-01-28T06:11:00.524Z,203.03
2019-01-28T06:13:28.152Z,186.73
2019-01-28T06:15:55.582Z,191.27
2019-01-28T06:18:23.031Z,192.77
2019-01-28T06:20:50.385Z,194.03
2019-01-28T06:23:17.904Z,201.53
2019-01-28T06:25:45.523Z,192.00
2019-01-28T06:28:13.076Z,197.67
2019-01-28T06:30:40.784Z,194.20
2019-01-28T06:33:08.477Z,192.17
2019-01-28T06:35:35.825Z,192.07
2019-01-28T06:38:03.425Z,200.60
2019-01-28T06:40:33.917Z,198.03
2019-01-28T06:43:04.254Z,204.17
2019-01-28T06:45:31.914Z,200.67
2019-01-28T06:47:59.586Z,207.87
2019-01-28T06:50:27.750Z,209.40
2019-01-28T06:52:55.314Z,212.50
2019-01-28T06:55:22.991Z,238.50
2019-01-28T06:57:50.598Z,243.30
2019-01-28T07:00:27.580Z,227.80
2019-01-28T07:02:55.354Z,215.97
2019-01-28T07:05:22.991Z,212.37
2019-01-28T07:07:50.737Z,217.50
2019-01-28T07:10:18.385Z,214.60
2019-01-28T07:12:46.135Z,227.70
2019-01-28T07:15:16.444Z,213.37
2019-01-28T07:17:44.039Z,220.30
2019-01-28T07:20:16.133Z,212.20
2019-01-28T07:22:43.731Z,214.93
2019-01-28T07:25:12.365Z,203.77
2019-01-28T07:27:40.007Z,217.97
2019-01-28T07:30:12.260Z,190.53
2019-01-28T07:32:39.862Z,210.83
2019-01-28T07:35:09.027Z,201.67
2019-01-28T07:37:36.378Z,220.90
2019-01-28T07:40:05.330Z,204.83
2019-01-28T07:42:33.702Z,219.33
2019-01-28T07:45:01.253Z,197.87
2019-01-28T07:47:29.209Z,201.90
2019-01-28T07:49:56.730Z,194.63
2019-01-28T07:52:24.592Z,200.67
2019-01-28T07:54:51.982Z,190.53
2019-01-28T07:57:19.370Z,208.37
2019-01-28T07:59:46.950Z,199.90
2019-01-28T08:02:14.727Z,216.20
2019-01-28T08:04:42.506Z,201.20
2019-01-28T08:07:10.164Z,208.40
2019-01-28T08:09:37.602Z,191.17
2019-01-28T08:12:05.269Z,203.77
2019-01-28T08:14:32.891Z,197.43
2019-01-28T08:17:00.596Z,202.60
2019-01-28T08:19:27.989Z,199.87
2019-01-28T08:21:55.374Z,192.83
2019-01-28T08:24:22.956Z,193.93
2019-01-28T08:26:50.429Z,199.73
2019-01-28T08:29:17.787Z,201.63
2019-01-28T08:31:45.963Z,197.60
2019-01-28T08:34:13.626Z,205.07
2019-01-28T08:36:41.152Z,215.40
2019-01-28T08:39:09.077Z,207.70
2019-01-28T08:41:37.240Z,211.20
2019-01-28T08:44:04.949Z,200.50
2019-01-28T08:46:32.470Z,198.90
2019-01-28T08:49:00.031Z,193.70
2019-01-28T08:51:27.749Z,204.70
2019-01-28T08:53:55.519Z,204.73
2019-01-28T08:56:23.442Z,196.87
2019-01-28T08:58:51.198Z,205.63
2019-01-28T09:01:18.729Z,203.07
2019-01-28T09:03:46.115Z,200.93
2019-01-28T09:06:13.492Z,196.70
2019-01-28T09:08:41.046Z,201.40
2019-01-28T09:11:08.624Z,203.83
2019-01-28T09:13:36.109Z,196.90
2019-01-28T09:16:03.810Z,196.47
2019-01-28T09:18:31.454Z,195.20
2019-01-28T09:20:58.892Z,206.23
2019-01-28T09:23:26.487Z,201.40
2019-01-28T09:25:53.970Z,198.67
2019-01-28T09:28:21.422Z,201.60
2019-01-28T09:30:49.085Z,200.20
2019-01-28T09:33:16.481Z,201.97
2019-01-28T09:35:44.316Z,192.33
2019-01-28T09:38:12.337Z,201.93
2019-01-28T09:40:39.901Z,207.97
2019-01-28T09:43:07.599Z,202.93
2019-01-28T09:45:40.684Z,198.60
2019-01-28T09:48:11.301Z,203.13
2019-01-28T09:50:38.942Z,199.73
2019-01-28T09:53:07.655Z,197.30
2019-01-28T09:55:35.236Z,191.47
2019-01-28T09:58:03.862Z,199.33
2019-01-28T10:00:42.452Z,207.83
2019-01-28T10:03:10.012Z,202.73
2019-01-28T10:05:38.405Z,196.47
2019-01-28T10:08:07.623Z,202.90
2019-01-28T10:10:35.302Z,201.57
2019-01-28T10:13:03.227Z,207.27
2019-01-28T10:15:31.441Z,199.40
2019-01-28T10:17:59.030Z,212.77
2019-01-28T10:20:36.344Z,215.30
2019-01-28T10:23:04.240Z,208.77
2019-01-28T10:25:32.035Z,205.80
2019-01-28T10:28:00.510Z,216.23
2019-01-28T10:30:31.333Z,204.70
2019-01-28T10:32:59.139Z,221.03
2019-01-28T10:35:28.423Z,208.33
2019-01-28T10:37:56.180Z,222.80
2019-01-28T10:40:26.922Z,207.57
2019-01-28T10:42:54.785Z,225.00
2019-01-28T10:45:22.474Z,208.33
2019-01-28T10:47:50.312Z,227.47
2019-01-28T10:50:18.151Z,222.83
2019-01-28T10:52:46.913Z,237.63
2019-01-28T10:55:16.612Z,220.97
2019-01-28T10:57:44.355Z,228.03
2019-01-28T11:00:17.253Z,219.80
2019-01-28T11:02:44.966Z,235.17
2019-01-28T11:05:13.437Z,216.57
2019-01-28T11:07:40.942Z,243.97
2019-01-28T11:10:10.137Z,217.80
2019-01-28T11:12:37.711Z,237.57
2019-01-28T11:15:09.198Z,218.70
2019-01-28T11:17:36.932Z,230.17
2019-01-28T11:20:07.338Z,217.53
2019-01-28T11:22:35.976Z,226.97
2019-01-28T11:25:08.755Z,222.97
2019-01-28T11:27:36.342Z,230.80
2019-01-28T11:30:10.781Z,235.60
2019-01-28T11:32:38.697Z,239.30
2019-01-28T11:35:06.477Z,224.13
2019-01-28T11:37:33.845Z,228.30
2019-01-28T11:40:01.781Z,238.23
2019-01-28T11:42:29.690Z,241.00
2019-01-28T11:44:57.159Z,225.60
2019-01-28T11:47:24.671Z,242.83
2019-01-28T11:49:52.253Z,230.03
2019-01-28T11:52:19.684Z,231.60
2019-01-28T11:54:47.030Z,235.83
2019-01-28T11:57:14.503Z,245.50
2019-01-28T11:59:42.052Z,240.70
2019-01-28T12:02:09.532Z,249.43
2019-01-28T12:04:38.862Z,247.83
2019-01-28T12:07:06.401Z,253.67
2019-01-28T12:09:34.011Z,246.23
2019-01-28T12:12:01.592Z,249.63
2019-01-28T12:14:29.096Z,244.87
2019-01-28T12:16:56.676Z,240.17
2019-01-28T12:19:24.375Z,247.27
2019-01-28T12:21:53.158Z,237.20
2019-01-28T12:24:20.629Z,245.53
2019-01-28T12:26:48.221Z,245.47
2019-01-28T12:29:15.680Z,244.30
2019-01-28T12:31:43.135Z,248.60
2019-01-28T12:34:10.617Z,246.50
2019-01-28T12:36:38.591Z,246.57
2019-01-28T12:39:07.817Z,247.77
2019-01-28T12:41:35.432Z,239.80
2019-01-28T12:44:03.260Z,238.97
2019-01-28T12:46:30.920Z,252.33
2019-01-28T12:48:58.422Z,250.80
2019-01-28T12:51:25.780Z,253.33
2019-01-28T12:53:53.690Z,252.30
2019-01-28T12:56:21.296Z,255.97
2019-01-28T12:58:50.061Z,258.87
2019-01-28T13:01:17.841Z,266.57
2019-01-28T13:03:45.288Z,249.40
2019-01-28T13:06:13.148Z,269.23
2019-01-28T13:08:40.728Z,256.30
2019-01-28T13:11:08.257Z,264.13
2019-01-28T13:13:40.940Z,268.60
2019-01-28T13:16:05.671Z,258.30
2019-01-28T13:18:33.125Z,250.17
2019-01-28T13:21:01.104Z,242.33
2019-01-28T13:23:29.579Z,240.27
2019-01-28T13:25:57.344Z,235.40
2019-01-28T13:28:24.688Z,245.37
2019-01-28T13:30:53.136Z,228.30
2019-01-28T13:33:22.158Z,234.50
2019-01-28T13:35:49.735Z,238.27
2019-01-28T13:38:17.505Z,237.57
2019-01-28T13:40:45.046Z,225.10
2019-01-28T13:43:12.677Z,239.30
2019-01-28T13:45:41.553Z,229.43
2019-01-28T13:48:12.190Z,216.20
2019-01-28T13:50:40.898Z,222.33
2019-01-28T13:53:08.553Z,227.53
2019-01-28T13:55:36.201Z,234.60
2019-01-28T13:58:04.152Z,241.77
2019-01-28T14:00:32.394Z,245.97
2019-01-28T14:03:00.180Z,239.67
2019-01-28T14:05:27.719Z,238.50
2019-01-28T14:07:56.359Z,239.13
2019-01-28T14:10:24.842Z,232.20
2019-01-28T14:12:52.633Z,244.80
2019-01-28T14:15:37.953Z,231.97
2019-01-28T14:18:08.377Z,236.03
2019-01-28T14:20:36.120Z,231.93
2019-01-28T14:23:04.398Z,233.83
2019-01-28T14:25:32.101Z,243.97
2019-01-28T14:27:59.698Z,245.73
2019-01-28T14:30:37.475Z,241.93
2019-01-28T14:33:06.666Z,234.77
2019-01-28T14:35:34.954Z,241.60
2019-01-28T14:38:03.911Z,248.10
2019-01-28T14:40:31.602Z,250.43
2019-01-28T14:43:00.270Z,257.27
2019-01-28T14:45:28.462Z,247.93
2019-01-28T14:48:05.439Z,253.97
2019-01-28T14:50:33.852Z,244.77
2019-01-28T14:53:02.557Z,246.47
2019-01-28T14:55:33.865Z,248.40
2019-01-28T14:58:04.527Z,248.80
2019-01-28T15:00:38.009Z,242.87
2019-01-28T15:03:06.424Z,245.53
2019-01-28T15:05:34.243Z,253.63
2019-01-28T15:08:01.933Z,258.90
2019-01-28T15:10:31.212Z,256.73
2019-01-28T15:12:59.270Z,256.13
2019-01-28T15:15:30.175Z,258.93
2019-01-28T15:17:58.060Z,275.30
2019-01-28T15:20:25.949Z,254.83
2019-01-28T15:22:53.491Z,270.10
2019-01-28T15:25:21.389Z,258.57
2019-01-28T15:27:49.152Z,266.17
2019-01-28T15:30:24.767Z,266.17
2019-01-28T15:32:53.070Z,268.53
2019-01-28T15:35:55.900Z,256.53
2019-01-28T15:38:23.423Z,263.03
2019-01-28T15:40:51.046Z,259.83
2019-01-28T15:43:18.729Z,253.43
2019-01-28T15:45:46.517Z,249.67
2019-01-28T15:48:14.133Z,263.77
2019-01-28T15:50:42.479Z,271.40
2019-01-28T15:53:11.114Z,269.47
2019-01-28T15:55:41.117Z,270.60
2019-01-28T15:58:10.750Z,267.93
2019-01-28T16:00:42.441Z,278.90
2019-01-28T16:03:10.316Z,274.70
2019-01-28T16:05:37.928Z,274.60
2019-01-28T16:08:06.216Z,288.43
2019-01-28T16:10:33.946Z,280.77
2019-01-28T16:13:01.452Z,305.30
2019-01-28T16:15:33.769Z,292.00
2019-01-28T16:18:02.292Z,313.13
2019-01-28T16:20:38.668Z,296.03
2019-01-28T16:23:29.074Z,305.87
2019-01-28T16:26:04.438Z,304.20
2019-01-28T16:28:58.267Z,301.33
2019-01-28T16:31:26.025Z,308.80
2019-01-28T16:34:04.770Z,299.43
2019-01-28T16:36:34.137Z,296.23
2019-01-28T16:39:07.036Z,305.13
2019-01-28T16:41:35.673Z,297.40
2019-01-28T16:44:10.913Z,291.63
2019-01-28T16:46:39.701Z,295.13
2019-01-28T16:49:07.403Z,300.23
2019-01-28T16:51:35.881Z,277.57
2019-01-28T16:54:05.638Z,284.20
2019-01-28T16:56:36.978Z,279.67
2019-01-28T16:59:04.905Z,295.83
2019-01-28T17:01:32.467Z,296.47
2019-01-28T17:04:02.862Z,303.17
2019-01-28T17:06:39.711Z,302.57
2019-01-28T17:09:08.171Z,313.23
2019-01-28T17:11:36.022Z,314.37
2019-01-28T17:14:04.364Z,331.97
2019-01-28T17:16:40.627Z,313.37
2019-01-28T17:19:08.277Z,323.50
2019-01-28T17:21:38.808Z,314.60
2019-01-28T17:24:06.737Z,314.87
2019-01-28T17:26:34.536Z,327.57
2019-01-28T17:29:02.065Z,322.67
2019-01-28T17:31:29.482Z,307.93
2019-01-28T17:33:56.867Z,313.03
2019-01-28T17:36:24.477Z,313.30
2019-01-28T17:38:54.291Z,316.90
2019-01-28T17:41:22.391Z,321.30
2019-01-28T17:43:49.884Z,304.17
2019-01-28T17:46:17.610Z,306.43
2019-01-28T17:48:44.991Z,305.40
2019-01-28T17:51:12.794Z,315.73
2019-01-28T17:53:40.217Z,316.90
2019-01-28T17:56:07.672Z,309.87
2019-01-28T17:58:35.252Z,307.70
2019-01-28T18:01:03.729Z,316.70
2019-01-28T18:03:31.626Z,298.30
2019-01-28T18:05:59.020Z,301.10
2019-01-28T18:08:26.477Z,311.07
2019-01-28T18:10:53.917Z,304.10
2019-01-28T18:13:21.370Z,301.93
2019-01-28T18:15:48.814Z,303.80
2019-01-28T18:18:16.474Z,304.70
2019-01-28T18:20:51.545Z,307.23
2019-01-28T18:23:34.673Z,308.10
2019-01-28T18:26:02.782Z,331.83
2019-01-28T18:28:30.676Z,323.60
2019-01-28T18:30:58.221Z,330.27
2019-01-28T18:33:26.396Z,326.13
2019-01-28T18:35:54.051Z,320.40
2019-01-28T18:38:21.451Z,312.07
2019-01-28T18:40:49.092Z,310.17
2019-01-28T18:43:16.547Z,310.90
2019-01-28T18:45:44.204Z,299.57
2019-01-28T18:48:12.340Z,308.23
2019-01-28T18:50:40.038Z,284.97
2019-01-28T18:53:07.771Z,282.47
2019-01-28T18:55:35.566Z,287.50
2019-01-28T18:58:04.274Z,278.43
2019-01-28T19:00:32.198Z,259.33
2019-01-28T19:03:00.005Z,278.17
2019-01-28T19:05:40.190Z,277.80
2019-01-28T19:08:15.379Z,280.87
2019-01-28T19:10:59.014Z,274.07
2019-01-28T19:13:56.797Z,275.23
2019-01-28T19:16:43.400Z,287.13
2019-01-28T19:19:33.468Z,282.57
2019-01-28T19:22:02.605Z,288.97
2019-01-28T19:24:30.257Z,278.63
2019-01-28T19:26:58.654Z,262.07
2019-01-28T19:29:26.586Z,266.10
2019-01-28T19:31:55.706Z,247.90
2019-01-28T19:34:24.063Z,243.13
2019-01-28T19:36:53.572Z,234.30
2019-01-28T19:39:27.615Z,217.50
2019-01-28T19:41:55.273Z,226.17
2019-01-28T19:44:22.932Z,231.87
2019-01-28T19:46:51.622Z,241.33
2019-01-28T19:49:20.450Z,229.87
2019-01-28T19:51:49.535Z,232.90
2019-01-28T19:54:18.700Z,216.03
2019-01-28T19:56:48.078Z,227.53
2019-01-28T19:59:15.898Z,227.63
2019-01-28T20:01:44.587Z,218.77
2019-01-28T20:04:13.312Z,222.07
2019-01-28T20:06:41.113Z,221.70
2019-01-28T20:09:11.575Z,200.57
2019-01-28T20:11:40.411Z,218.80
2019-01-28T20:14:08.174Z,201.53
2019-01-28T20:16:35.810Z,212.70
2019-01-28T20:19:03.809Z,203.07
2019-01-28T20:21:31.404Z,213.27
2019-01-28T20:23:59.225Z,214.60
2019-01-28T20:26:26.857Z,208.83
2019-01-28T20:28:54.464Z,224.47
2019-01-28T20:31:22.391Z,212.03
2019-01-28T20:33:52.198Z,214.40
2019-01-28T20:36:19.936Z,207.53
2019-01-28T20:38:47.655Z,205.27
2019-01-28T20:41:15.326Z,218.37
2019-01-28T20:43:44.680Z,203.20
2019-01-28T20:46:12.821Z,213.23
2019-01-28T20:48:41.279Z,226.87
2019-01-28T20:51:09.262Z,224.33
2019-01-28T20:53:37.603Z,206.00
2019-01-28T20:56:05.589Z,215.63
2019-01-28T20:58:33.219Z,219.00
2019-01-28T21:01:02.161Z,218.27
2019-01-28T21:03:30.277Z,209.77
2019-01-28T21:05:59.592Z,220.40
2019-01-28T21:08:27.103Z,225.23
2019-01-28T21:10:55.920Z,232.57
2019-01-28T21:13:24.303Z,221.83
2019-01-28T21:15:52.675Z,217.70
2019-01-28T21:18:20.306Z,217.00
2019-01-28T21:20:47.969Z,221.70
2019-01-28T21:23:15.712Z,215.43
2019-01-28T21:25:43.332Z,217.47
2019-01-28T21:28:11.830Z,218.83
2019-01-28T21:30:51.428Z,205.10
2019-01-28T21:33:19.316Z,213.43
2019-01-28T21:36:11.832Z,187.20
2019-01-28T21:38:43.086Z,198.70
2019-01-28T21:41:10.793Z,198.27
2019-01-28T21:43:38.400Z,189.33
2019-01-28T21:46:06.098Z,192.60
2019-01-28T21:48:33.829Z,187.77
2019-01-28T21:51:01.408Z,181.83
2019-01-28T21:53:30.272Z,185.27
2019-01-28T21:55:57.843Z,202.07
2019-01-28T21:58:25.382Z,182.87
2019-01-28T22:00:57.150Z,200.87
2019-01-28T22:03:26.644Z,191.90
2019-01-28T22:05:54.100Z,190.53
2019-01-28T22:08:21.949Z,197.73
2019-01-28T22:10:49.322Z,182.27
2019-01-28T22:13:16.958Z,185.73
2019-01-28T22:15:44.447Z,177.10
2019-01-28T22:18:13.581Z,186.43
2019-01-28T22:20:41.787Z,182.60
2019-01-28T22:23:10.022Z,178.80
2019-01-28T22:25:37.692Z,194.03
2019-01-28T22:28:05.454Z,192.57
2019-01-28T22:30:34.316Z,176.93
2019-01-28T22:33:02.000Z,180.27
2019-01-28T22:35:29.499Z,175.10
2019-01-28T22:37:58.954Z,181.73
2019-01-28T22:40:29.564Z,169.47
2019-01-28T22:42:57.071Z,201.57
2019-01-28T22:45:24.660Z,184.70
2019-01-28T22:47:52.221Z,179.20
2019-01-28T22:50:20.099Z,181.73
2019-01-28T22:52:49.256Z,192.63
2019-01-28T22:55:18.652Z,181.97
2019-01-28T22:57:51.416Z,188.00
2019-01-28T23:00:38.733Z,195.83
2019-01-28T23:03:08.310Z,195.50
2019-01-28T23:05:36.136Z,172.67
2019-01-28T23:08:04.082Z,189.73
2019-01-28T23:10:31.697Z,178.97
2019-01-28T23:12:59.312Z,201.27
2019-01-28T23:15:27.004Z,185.97
2019-01-28T23:17:54.486Z,183.20
2019-01-28T23:20:22.251Z,176.63
2019-01-28T23:22:50.228Z,195.33
2019-01-28T23:25:18.026Z,184.90
2019-01-28T23:27:45.701Z,204.70
2019-01-28T23:30:13.975Z,188.43
2019-01-28T23:32:41.993Z,195.93
2019-01-28T23:35:10.123Z,194.20
2019-01-28T23:37:37.763Z,190.17
2019-01-28T23:40:05.857Z,187.87
2019-01-28T23:42:33.596Z,199.50
2019-01-28T23:45:01.326Z,189.17
2019-01-28T23:47:28.984Z,190.70
2019-01-28T23:49:56.694Z,191.37
2019-01-28T23:52:25.243Z,192.90
2019-01-28T23:54:53.258Z,172.13
2019-01-28T23:57:20.918Z,198.37
2019-01-28T23:59:48.786Z,189.20
